Time;durP1;ratioP1;P1;durP2;ratioP2;P2;SDS_P1;SDS_P2;PMS_P1;PMS_P2;Temp;Humidity;BMP_temperature;BMP_pressure;BME280_temperature;BME280_humidity;BME280_pressure;Samples;Min_cycle;Max_cycle;Signal;HPM_P1;HPM_P2
2021/12/13 00:01:24;;;;;;;5.33;4.63;;;8.00;99.90;;;;;;5032045;28;20784;-71
2021/12/13 00:04:10;;;;;;;8.93;4.73;;;8.00;99.90;;;;;;5031437;28;20400;-71
2021/12/13 00:06:49;;;;;;;6.83;4.07;;;8.00;99.90;;;;;;5034545;28;20947;-72
2021/12/13 00:09:19;;;;;;;7.33;4.10;;;8.00;99.90;;;;;;5034862;28;20452;-69
2021/12/13 00:11:51;;;;;;;7.50;4.20;;;8.00;99.90;;;;;;5035850;28;20402;-70
2021/12/13 00:14:27;;;;;;;6.93;4.70;;;8.00;99.90;;;;;;5033975;28;20513;-70
2021/12/13 00:16:58;;;;;;;4.93;3.93;;;8.00;99.90;;;;;;5035548;28;20468;-71
2021/12/13 00:19:33;;;;;;;5.10;4.17;;;8.00;99.90;;;;;;5035438;28;20407;-72
2021/12/13 00:22:04;;;;;;;6.67;4.00;;;8.00;99.90;;;;;;5035050;28;20414;-75
2021/12/13 00:24:34;;;;;;;10.50;4.33;;;8.00;99.90;;;;;;5035352;28;20426;-72
2021/12/13 00:27:21;;;;;;;6.53;4.00;;;8.00;99.90;;;;;;5035039;28;21000;-70
2021/12/13 00:29:59;;;;;;;8.90;4.73;;;8.10;99.90;;;;;;5034647;28;20552;-73
2021/12/13 00:33:02;;;;;;;6.70;4.70;;;8.10;99.90;;;;;;5034539;28;20407;-72
2021/12/13 00:35:36;;;;;;;5.80;5.07;;;8.10;99.90;;;;;;5019061;28;20437;-71
2021/12/13 00:38:05;;;;;;;7.43;4.17;;;8.10;99.90;;;;;;5035093;28;20406;-70
2021/12/13 00:40:38;;;;;;;7.80;4.00;;;8.10;99.90;;;;;;5034942;28;20930;-72
2021/12/13 00:43:21;;;;;;;11.53;4.17;;;8.10;99.90;;;;;;5034153;28;20400;-70
2021/12/13 00:45:59;;;;;;;5.60;4.33;;;8.10;99.90;;;;;;5032823;28;20805;-69
2021/12/13 00:48:29;;;;;;;7.83;4.93;;;8.10;99.90;;;;;;5034116;28;20411;-71
2021/12/13 00:51:08;;;;;;;6.33;4.17;;;8.20;99.90;;;;;;5034891;28;20449;-71
2021/12/13 00:53:38;;;;;;;3.90;3.60;;;8.20;99.90;;;;;;5034387;28;20416;-69
2021/12/13 00:56:47;;;;;;;8.73;3.57;;;8.20;99.90;;;;;;5034509;28;20455;-72
2021/12/13 00:59:30;;;;;;;6.50;4.60;;;8.30;99.90;;;;;;5034668;28;20458;-73
2021/12/13 01:02:02;;;;;;;7.40;4.93;;;8.30;99.90;;;;;;5034750;28;20774;-69
2021/12/13 01:04:45;;;;;;;7.97;4.50;;;8.30;99.90;;;;;;5032932;28;20473;-71
2021/12/13 01:07:19;;;;;;;10.70;5.23;;;8.40;99.90;;;;;;5033007;28;20459;-69
2021/12/13 01:10:04;;;;;;;9.90;4.60;;;8.40;99.90;;;;;;5034520;28;20417;-71
2021/12/13 01:12:30;;;;;;;9.97;5.40;;;8.40;99.90;;;;;;5033427;28;20486;-70
2021/12/13 01:14:59;;;;;;;8.27;4.97;;;8.40;99.90;;;;;;5034683;28;20818;-69
2021/12/13 01:17:55;;;;;;;10.20;5.13;;;8.40;99.90;;;;;;5034261;28;20220;-69
2021/12/13 01:20:42;;;;;;;11.30;5.10;;;8.50;99.90;;;;;;5034418;28;20513;-71
2021/12/13 01:23:17;;;;;;;6.60;4.17;;;8.50;99.90;;;;;;5032957;28;20428;-68
2021/12/13 01:26:13;;;;;;;8.70;5.17;;;8.50;99.90;;;;;;5034018;28;20775;-73
2021/12/13 01:28:44;;;;;;;4.47;4.00;;;8.50;99.90;;;;;;5033945;28;20446;-70
2021/12/13 01:31:17;;;;;;;10.20;4.90;;;8.50;99.90;;;;;;5034502;28;20441;-70
2021/12/13 01:33:46;;;;;;;8.13;4.87;;;8.50;99.90;;;;;;5033277;28;20422;-72
2021/12/13 01:36:22;;;;;;;13.23;4.20;;;8.40;99.90;;;;;;5033637;28;20485;-71
2021/12/13 01:38:59;;;;;;;6.60;3.90;;;8.40;99.90;;;;;;5033867;28;20814;-72
2021/12/13 01:41:31;;;;;;;7.83;4.40;;;8.40;99.90;;;;;;5032473;28;20429;-72
2021/12/13 01:44:03;;;;;;;7.13;4.40;;;8.50;99.90;;;;;;5031979;28;20451;-69
2021/12/13 01:46:40;;;;;;;11.03;3.90;;;8.50;99.90;;;;;;5032845;28;20455;-73
2021/12/13 01:49:07;;;;;;;8.10;4.30;;;8.50;99.90;;;;;;5032509;28;20435;-73
2021/12/13 01:51:34;;;;;;;7.80;3.70;;;8.50;99.90;;;;;;5034327;28;20775;-71
2021/12/13 01:54:05;;;;;;;6.30;4.07;;;8.50;99.90;;;;;;5032451;28;20454;-72
2021/12/13 01:56:54;;;;;;;8.40;4.30;;;8.50;99.90;;;;;;5033479;28;20489;-73
2021/12/13 02:02:22;;;;;;;10.77;4.20;;;8.50;99.90;;;;;;5032937;28;20502;-75
2021/12/13 02:05:04;;;;;;;6.13;4.13;;;8.60;99.90;;;;;;5033415;28;20422;-73
2021/12/13 02:08:00;;;;;;;9.40;4.17;;;8.50;99.90;;;;;;5033692;28;20814;-68
2021/12/13 02:10:48;;;;;;;8.60;4.70;;;8.60;99.90;;;;;;5033357;28;20426;-71
2021/12/13 02:13:21;;;;;;;6.10;4.20;;;8.60;99.90;;;;;;5032334;28;20776;-69
2021/12/13 02:18:37;;;;;;;8.13;4.13;;;8.60;99.90;;;;;;5032978;28;20459;-71
2021/12/13 02:21:29;;;;;;;7.93;4.13;;;8.60;99.90;;;;;;5033412;28;20404;-70
2021/12/13 02:24:09;;;;;;;5.93;3.90;;;8.60;99.90;;;;;;5032151;28;20416;-69
2021/12/13 02:26:38;;;;;;;4.83;3.50;;;8.60;99.90;;;;;;5031268;28;20996;-71
2021/12/13 02:29:37;;;;;;;6.87;4.10;;;8.50;99.90;;;;;;5032278;28;20454;-69
2021/12/13 02:32:09;;;;;;;4.23;3.83;;;8.60;99.90;;;;;;5032420;28;20540;-69
2021/12/13 02:34:42;;;;;;;5.97;4.00;;;8.60;99.90;;;;;;5031756;28;20437;-68
2021/12/13 02:37:09;;;;;;;4.60;3.53;;;8.70;99.90;;;;;;5031764;28;20472;-73
2021/12/13 02:39:46;;;;;;;5.00;4.47;;;8.70;99.90;;;;;;5033047;28;20556;-71
2021/12/13 02:42:16;;;;;;;9.37;4.00;;;8.70;99.90;;;;;;5031146;28;20421;-68
2021/12/13 02:44:47;;;;;;;4.43;3.90;;;8.60;99.90;;;;;;5031607;28;20419;-69
2021/12/13 02:47:30;;;;;;;9.47;4.97;;;8.60;99.90;;;;;;5032704;28;20463;-72
2021/12/13 02:49:56;;;;;;;5.30;3.67;;;8.60;99.90;;;;;;5031420;28;21012;-71
2021/12/13 02:52:24;;;;;;;5.43;3.60;;;8.70;99.90;;;;;;5030672;28;20427;-70
2021/12/13 02:54:58;;;;;;;7.20;5.47;;;8.70;99.90;;;;;;5032440;28;20413;-71
2021/12/13 02:57:39;;;;;;;12.33;4.90;;;8.80;99.90;;;;;;5032553;28;20468;-69
2021/12/13 03:00:40;;;;;;;10.63;4.93;;;8.70;99.90;;;;;;5032233;28;20428;-70
2021/12/13 03:03:12;;;;;;;8.93;4.70;;;8.80;99.90;;;;;;5030448;28;20946;-71
2021/12/13 03:05:43;;;;;;;8.53;5.00;;;8.80;99.90;;;;;;5032704;28;20440;-71
2021/12/13 03:08:18;;;;;;;6.83;4.40;;;8.80;99.90;;;;;;5032729;28;20504;-71
2021/12/13 03:10:49;;;;;;;6.43;4.80;;;8.80;99.90;;;;;;5032917;28;20916;-72
2021/12/13 03:13:17;;;;;;;6.93;4.40;;;8.80;99.90;;;;;;5030787;28;21933;-72
2021/12/13 03:15:54;;;;;;;11.77;5.23;;;8.80;99.90;;;;;;5032530;28;20411;-70
2021/12/13 03:18:24;;;;;;;6.77;4.63;;;8.80;99.90;;;;;;5032721;28;20439;-71
2021/12/13 03:21:02;;;;;;;8.13;5.43;;;8.80;99.90;;;;;;5031793;28;20410;-71
2021/12/13 03:23:46;;;;;;;5.93;4.43;;;8.80;99.90;;;;;;5031522;28;20427;-69
2021/12/13 03:26:32;;;;;;;11.03;4.40;;;8.80;99.90;;;;;;5032466;28;20438;-71
2021/12/13 03:29:16;;;;;;;8.57;6.10;;;8.80;99.90;;;;;;5032671;28;20423;-71
2021/12/13 03:31:47;;;;;;;9.00;4.70;;;8.80;99.90;;;;;;5030774;28;20418;-73
2021/12/13 03:34:32;;;;;;;8.50;4.70;;;8.80;99.90;;;;;;5031777;28;20426;-69
2021/12/13 03:37:01;;;;;;;7.17;4.33;;;8.80;99.90;;;;;;5032461;28;20477;-71
2021/12/13 03:39:36;;;;;;;5.17;3.47;;;8.80;99.90;;;;;;5032335;28;20893;-69
2021/12/13 03:42:06;;;;;;;4.77;3.43;;;8.80;99.90;;;;;;5035141;28;20755;-73
2021/12/13 03:44:40;;;;;;;6.40;3.90;;;8.90;99.90;;;;;;5036194;28;20429;-71
2021/12/13 03:47:14;;;;;;;6.23;4.37;;;8.90;99.90;;;;;;5036081;28;20476;-70
2021/12/13 03:49:44;;;;;;;4.87;4.00;;;8.90;99.90;;;;;;5035974;28;20459;-69
2021/12/13 03:52:13;;;;;;;8.87;5.43;;;8.90;99.90;;;;;;5034237;28;20434;-70
2021/12/13 03:54:41;;;;;;;6.40;4.27;;;8.90;99.90;;;;;;5035807;28;20424;-72
2021/12/13 03:57:08;;;;;;;7.73;4.90;;;8.90;99.90;;;;;;5035721;28;20464;-73
2021/12/13 03:59:41;;;;;;;4.47;4.03;;;8.90;99.90;;;;;;5034935;28;20413;-71
2021/12/13 04:02:23;;;;;;;9.30;4.17;;;8.90;99.90;;;;;;5034966;28;20428;-68
2021/12/13 04:04:52;;;;;;;4.67;3.63;;;8.90;99.90;;;;;;5035973;28;20414;-74
2021/12/13 04:07:32;;;;;;;6.27;3.90;;;8.90;99.90;;;;;;5033609;28;20434;-70
2021/12/13 04:10:09;;;;;;;10.83;4.63;;;8.90;99.90;;;;;;5035237;28;20438;-72
2021/12/13 04:12:44;;;;;;;5.93;4.77;;;9.00;99.90;;;;;;5034472;28;20502;-71
2021/12/13 04:15:25;;;;;;;6.07;4.90;;;8.90;99.90;;;;;;5035089;28;20427;-69
2021/12/13 04:18:12;;;;;;;8.03;5.20;;;9.00;99.90;;;;;;5035663;28;20832;-69
2021/12/13 04:20:40;;;;;;;5.07;4.30;;;9.00;99.90;;;;;;5035481;28;20917;-72
2021/12/13 04:23:21;;;;;;;9.10;3.63;;;9.00;99.90;;;;;;5034623;28;20436;-70
2021/12/13 04:25:50;;;;;;;3.80;3.47;;;9.00;99.90;;;;;;5035093;28;20832;-73
2021/12/13 04:28:34;;;;;;;7.80;4.97;;;9.00;99.90;;;;;;5033877;28;20429;-69
2021/12/13 04:31:05;;;;;;;9.00;4.87;;;9.00;99.90;;;;;;5034681;28;20458;-69
2021/12/13 04:33:44;;;;;;;7.83;5.67;;;9.00;99.90;;;;;;5034551;28;20416;-70
2021/12/13 04:36:24;;;;;;;5.60;3.80;;;9.00;99.90;;;;;;5035094;28;20465;-71
2021/12/13 04:38:55;;;;;;;7.10;5.37;;;9.00;99.90;;;;;;5035239;28;20851;-69
2021/12/13 04:41:23;;;;;;;10.90;5.40;;;9.10;99.90;;;;;;5035332;28;20499;-71
2021/12/13 04:43:53;;;;;;;7.00;5.10;;;9.10;99.90;;;;;;5034230;28;20573;-69
2021/12/13 04:46:21;;;;;;;9.77;5.63;;;9.10;99.90;;;;;;5034085;28;20456;-71
2021/12/13 04:48:49;;;;;;;9.20;5.80;;;9.10;99.90;;;;;;5034824;28;20502;-70
2021/12/13 04:51:16;;;;;;;6.97;5.23;;;9.20;99.90;;;;;;5034622;28;20468;-69
2021/12/13 04:53:49;;;;;;;11.03;5.60;;;9.20;99.90;;;;;;5034139;28;20392;-70
2021/12/13 04:56:22;;;;;;;5.70;4.60;;;9.10;99.90;;;;;;5034598;28;20869;-73
2021/12/13 04:58:52;;;;;;;6.70;4.47;;;9.20;99.90;;;;;;5034779;28;20445;-68
2021/12/13 05:01:20;;;;;;;10.47;5.30;;;9.20;99.90;;;;;;5034716;28;20810;-71
2021/12/13 05:03:56;;;;;;;6.87;4.57;;;9.10;99.90;;;;;;5033144;28;20437;-71
2021/12/13 05:06:28;;;;;;;5.17;3.73;;;9.10;99.90;;;;;;5034467;28;20455;-69
2021/12/13 05:08:58;;;;;;;6.20;4.00;;;9.10;99.90;;;;;;5034913;28;20421;-69
2021/12/13 05:11:28;;;;;;;6.73;4.30;;;9.10;99.90;;;;;;5034757;28;20799;-68
2021/12/13 05:13:57;;;;;;;6.13;4.60;;;9.20;99.90;;;;;;5033429;28;20417;-69
2021/12/13 05:16:50;;;;;;;6.33;3.97;;;9.10;99.90;;;;;;5034346;28;20815;-70
2021/12/13 05:19:29;;;;;;;5.27;3.63;;;9.10;99.90;;;;;;5034429;28;20432;-69
2021/12/13 05:21:58;;;;;;;5.83;4.43;;;9.10;99.90;;;;;;5033669;28;20822;-73
2021/12/13 05:24:28;;;;;;;4.30;3.90;;;9.20;99.90;;;;;;5032495;28;20432;-71
2021/12/13 05:27:15;;;;;;;6.93;4.40;;;9.20;99.90;;;;;;5034192;28;20470;-70
2021/12/13 05:29:46;;;;;;;3.80;3.50;;;9.20;99.90;;;;;;5034206;28;20429;-70
2021/12/13 05:32:27;;;;;;;4.10;3.70;;;9.20;99.90;;;;;;5032182;28;20929;-70
2021/12/13 05:34:58;;;;;;;5.10;4.00;;;9.20;99.90;;;;;;5034241;28;20440;-69
2021/12/13 05:37:25;;;;;;;4.90;3.50;;;9.20;99.90;;;;;;5033942;28;21080;-67
2021/12/13 05:40:14;;;;;;;5.53;4.07;;;9.20;99.90;;;;;;5034108;28;20521;-71
2021/12/13 05:42:47;;;;;;;5.13;4.00;;;9.20;99.90;;;;;;5032273;28;20421;-71
2021/12/13 05:45:20;;;;;;;5.23;3.30;;;9.20;99.90;;;;;;5033807;28;20417;-71
2021/12/13 05:48:00;;;;;;;13.60;6.80;;;9.20;99.90;;;;;;5033116;28;20428;-70
2021/12/13 05:50:38;;;;;;;5.77;4.30;;;9.20;99.90;;;;;;5033558;28;20413;-70
2021/12/13 05:53:15;;;;;;;8.67;4.37;;;9.20;99.90;;;;;;5032309;28;20507;-73
2021/12/13 05:55:57;;;;;;;5.33;4.53;;;9.30;99.90;;;;;;5033736;28;20791;-70
2021/12/13 05:58:38;;;;;;;7.50;4.70;;;9.30;99.90;;;;;;5033915;28;20772;-70
2021/12/13 06:01:16;;;;;;;7.53;4.73;;;9.40;99.90;;;;;;5033932;28;20467;-71
2021/12/13 06:03:51;;;;;;;6.20;3.73;;;9.40;99.90;;;;;;5031062;28;20397;-72
2021/12/13 06:06:26;;;;;;;7.90;4.73;;;9.30;99.90;;;;;;5033675;28;20498;-68
2021/12/13 06:08:56;;;;;;;5.63;4.27;;;9.40;99.90;;;;;;5033675;28;20430;-71
2021/12/13 06:11:33;;;;;;;9.77;5.50;;;9.40;99.90;;;;;;5033372;28;20425;-68
2021/12/13 06:14:05;;;;;;;11.83;5.30;;;9.40;99.90;;;;;;5032713;28;20425;-71
2021/12/13 06:16:41;;;;;;;9.13;5.57;;;9.40;99.90;;;;;;5032857;28;20980;-73
2021/12/13 06:19:34;;;;;;;7.80;4.60;;;9.40;99.90;;;;;;5033204;28;20402;-71
2021/12/13 06:22:11;;;;;;;13.27;5.70;;;9.40;99.90;;;;;;5031335;28;20484;-74
2021/12/13 06:24:52;;;;;;;6.30;5.20;;;9.40;99.90;;;;;;5033259;28;20405;-71
2021/12/13 06:27:22;;;;;;;7.67;6.00;;;9.40;99.90;;;;;;5032492;28;20453;-68
2021/12/13 06:29:55;;;;;;;11.93;8.33;;;9.40;99.90;;;;;;5032888;28;20512;-69
2021/12/13 06:33:02;;;;;;;6.43;4.73;;;9.50;99.90;;;;;;5032527;28;20948;-69
2021/12/13 06:35:30;;;;;;;8.60;5.17;;;9.50;99.90;;;;;;5016348;28;20462;-68
2021/12/13 06:37:59;;;;;;;11.27;6.00;;;9.50;99.90;;;;;;5031797;28;20543;-71
2021/12/13 06:40:29;;;;;;;6.50;4.80;;;9.50;99.90;;;;;;5031932;28;20416;-71
2021/12/13 06:43:00;;;;;;;7.97;5.60;;;9.40;99.90;;;;;;5032033;28;20434;-71
2021/12/13 06:45:34;;;;;;;12.90;6.47;;;9.50;99.90;;;;;;5031599;28;20969;-71
2021/12/13 06:48:05;;;;;;;9.17;6.03;;;9.50;99.90;;;;;;5033131;28;20409;-68
2021/12/13 06:50:37;;;;;;;13.43;5.90;;;9.50;99.90;;;;;;5032629;28;20520;-70
2021/12/13 06:53:18;;;;;;;8.10;4.90;;;9.50;99.90;;;;;;5032025;28;20753;-71
2021/12/13 06:55:45;;;;;;;10.07;5.97;;;9.50;99.90;;;;;;5032094;28;20436;-69
2021/12/13 06:58:19;;;;;;;6.30;5.53;;;9.60;99.90;;;;;;5033200;28;20891;-68
2021/12/13 07:00:47;;;;;;;6.57;5.03;;;9.60;99.90;;;;;;5032930;28;20405;-72
2021/12/13 07:03:23;;;;;;;7.50;5.50;;;9.60;99.90;;;;;;5032004;28;20420;-70
2021/12/13 07:05:52;;;;;;;7.20;4.70;;;9.50;99.90;;;;;;5032797;28;20403;-69
2021/12/13 07:08:25;;;;;;;5.40;4.47;;;9.60;99.90;;;;;;5033163;28;20394;-68
2021/12/13 07:10:57;;;;;;;6.03;4.10;;;9.60;99.90;;;;;;5033069;28;20496;-68
2021/12/13 07:13:39;;;;;;;5.53;3.80;;;9.60;99.90;;;;;;5031300;28;20451;-68
2021/12/13 07:16:14;;;;;;;9.43;3.77;;;9.60;99.90;;;;;;5036476;28;20465;-67
2021/12/13 07:18:55;;;;;;;4.80;3.83;;;9.60;99.90;;;;;;5036914;28;20405;-66
2021/12/13 07:21:28;;;;;;;3.40;2.50;;;9.60;99.90;;;;;;5036821;28;20411;-69
2021/12/13 07:24:02;;;;;;;5.87;3.83;;;9.60;99.90;;;;;;5035936;28;20855;-69
2021/12/13 07:26:38;;;;;;;5.30;3.73;;;9.60;99.90;;;;;;5035467;28;20950;-68
2021/12/13 07:29:18;;;;;;;5.33;4.37;;;9.60;99.90;;;;;;5035651;28;20425;-71
2021/12/13 07:31:45;;;;;;;4.13;3.67;;;9.60;99.90;;;;;;5036446;28;20905;-68
2021/12/13 07:34:19;;;;;;;4.30;3.90;;;9.70;99.90;;;;;;5035352;28;20493;-68
2021/12/13 07:36:58;;;;;;;4.73;3.33;;;9.60;99.90;;;;;;5036496;28;20468;-70
2021/12/13 07:39:31;;;;;;;8.40;4.10;;;9.70;99.90;;;;;;5036391;28;20486;-68
2021/12/13 07:42:08;;;;;;;4.10;3.30;;;9.70;99.90;;;;;;5036233;28;20414;-67
2021/12/13 07:44:42;;;;;;;5.57;4.87;;;9.70;99.90;;;;;;5036479;28;20456;-70
2021/12/13 07:47:20;;;;;;;6.07;4.53;;;9.70;99.90;;;;;;5036316;28;20425;-67
2021/12/13 07:49:50;;;;;;;6.63;5.70;;;9.70;99.90;;;;;;5036216;28;20415;-69
2021/12/13 07:52:26;;;;;;;10.33;5.97;;;9.70;99.90;;;;;;5034828;28;20899;-71
2021/12/13 07:54:52;;;;;;;7.67;5.40;;;9.70;99.90;;;;;;5036690;28;20412;-70
2021/12/13 07:57:32;;;;;;;8.50;5.60;;;9.70;99.90;;;;;;5036059;28;20453;-71
2021/12/13 07:59:59;;;;;;;7.10;6.33;;;9.70;99.90;;;;;;5036176;28;20480;-71
2021/12/13 08:02:30;;;;;;;11.60;6.80;;;9.70;99.90;;;;;;5035260;28;20802;-69
2021/12/13 08:05:13;;;;;;;9.97;6.33;;;9.70;99.90;;;;;;5036152;28;20463;-68
2021/12/13 08:07:43;;;;;;;13.10;6.00;;;9.70;99.90;;;;;;5035977;28;20401;-68
2021/12/13 08:10:17;;;;;;;9.67;6.70;;;9.80;99.90;;;;;;5035968;28;20416;-68
2021/12/13 08:12:48;;;;;;;12.00;6.87;;;9.80;99.90;;;;;;5034184;28;20405;-70
2021/12/13 08:15:21;;;;;;;10.27;6.40;;;9.80;99.90;;;;;;5034888;28;20749;-69
2021/12/13 08:18:01;;;;;;;7.33;5.80;;;9.80;99.90;;;;;;5015750;28;20437;-69
2021/12/13 08:20:31;;;;;;;10.70;7.10;;;9.80;99.90;;;;;;5020957;28;20426;-70
2021/12/13 08:22:58;;;;;;;8.87;6.93;;;9.90;99.90;;;;;;5034805;28;20983;-70
2021/12/13 08:25:32;;;;;;;9.23;7.37;;;9.90;99.90;;;;;;5034923;28;20913;-71
2021/12/13 08:28:15;;;;;;;6.90;5.30;;;9.90;99.90;;;;;;5023128;28;20484;-71
2021/12/13 08:30:57;;;;;;;11.33;6.40;;;10.00;99.90;;;;;;5022716;28;20432;-72
2021/12/13 08:33:34;;;;;;;10.27;6.67;;;10.00;99.90;;;;;;5034355;28;20860;-70
2021/12/13 08:36:23;;;;;;;11.40;6.20;;;10.00;99.90;;;;;;5035029;28;20978;-71
2021/12/13 08:39:03;;;;;;;9.80;6.53;;;10.00;99.90;;;;;;5034866;28;20508;-71
2021/12/13 08:41:42;;;;;;;11.23;6.70;;;10.10;99.90;;;;;;5035182;28;20407;-70
2021/12/13 08:44:11;;;;;;;9.23;7.43;;;10.10;99.90;;;;;;5034474;28;20931;-67
2021/12/13 08:46:51;;;;;;;7.83;6.63;;;10.10;99.90;;;;;;5034852;28;20417;-67
2021/12/13 08:49:24;;;;;;;10.17;6.87;;;10.10;99.90;;;;;;5018618;28;20959;-68
2021/12/13 08:52:07;;;;;;;10.13;6.90;;;10.20;99.90;;;;;;5029686;28;20426;-68
2021/12/13 08:55:11;;;;;;;15.80;6.57;;;10.20;99.90;;;;;;5034812;28;20422;-70
2021/12/13 08:57:43;;;;;;;18.80;7.57;;;10.20;99.90;;;;;;5034205;28;20793;-68
2021/12/13 09:00:32;;;;;;;11.90;7.27;;;10.30;99.90;;;;;;5034821;28;20501;-68
2021/12/13 09:03:17;;;;;;;13.43;7.20;;;10.20;99.90;;;;;;5034338;28;20377;-70
2021/12/13 09:05:58;;;;;;;9.80;6.47;;;10.30;99.90;;;;;;5033965;28;21031;-70
2021/12/13 09:08:30;;;;;;;12.63;7.57;;;10.30;99.90;;;;;;5034807;28;20407;-71
2021/12/13 09:11:18;;;;;;;14.47;7.47;;;10.30;99.90;;;;;;5029292;28;20396;-68
2021/12/13 09:13:50;;;;;;;15.93;7.27;;;10.30;99.90;;;;;;5021053;28;20422;-71
2021/12/13 09:16:21;;;;;;;10.77;6.80;;;10.30;99.90;;;;;;5018989;28;20508;-71
2021/12/13 09:19:33;;;;;;;14.23;8.40;;;10.40;99.90;;;;;;5014979;28;20700;-71
2021/12/13 09:22:13;;;;;;;14.80;7.40;;;10.30;99.90;;;;;;5022068;28;20401;-75
2021/12/13 09:24:48;;;;;;;14.17;7.40;;;10.40;99.90;;;;;;5033538;28;20417;-68
2021/12/13 09:27:16;;;;;;;10.03;6.20;;;10.40;99.90;;;;;;5028987;28;20433;-69
2021/12/13 09:30:13;;;;;;;10.20;6.87;;;10.50;99.90;;;;;;5021638;28;20403;-69
2021/12/13 09:33:13;;;;;;;10.53;6.53;;;10.50;99.90;;;;;;5025743;28;20471;-69
2021/12/13 09:36:00;;;;;;;8.00;5.33;;;10.50;99.90;;;;;;5014372;28;20414;-66
2021/12/13 09:38:44;;;;;;;7.97;6.77;;;10.50;99.90;;;;;;5018395;28;20509;-69
2021/12/13 09:41:28;;;;;;;14.43;6.50;;;10.50;99.90;;;;;;5029262;28;20414;-71
2021/12/13 09:44:02;;;;;;;9.13;5.80;;;10.50;99.90;;;;;;5013647;28;20993;-71
2021/12/13 09:46:30;;;;;;;9.07;6.47;;;10.50;99.90;;;;;;5014185;28;20591;-71
2021/12/13 09:48:58;;;;;;;9.20;6.40;;;10.50;99.90;;;;;;5021184;28;20488;-71
2021/12/13 09:51:36;;;;;;;8.00;5.63;;;10.50;99.90;;;;;;5032255;28;20413;-68
2021/12/13 09:54:08;;;;;;;10.40;6.90;;;10.50;99.90;;;;;;5033141;28;20921;-71
2021/12/13 09:56:38;;;;;;;12.33;6.53;;;10.50;99.90;;;;;;5016824;28;20455;-71
2021/12/13 09:59:16;;;;;;;15.07;7.43;;;10.60;99.90;;;;;;5020328;28;20509;-72
2021/12/13 10:01:42;;;;;;;7.33;5.80;;;10.60;99.90;;;;;;5032440;28;20446;-73
2021/12/13 10:04:16;;;;;;;11.70;7.37;;;10.60;99.90;;;;;;5032816;28;20406;-69
2021/12/13 10:06:47;;;;;;;9.17;7.30;;;10.60;99.90;;;;;;5032518;28;20467;-70
2021/12/13 10:09:20;;;;;;;10.77;6.80;;;10.60;99.90;;;;;;5022801;28;20513;-71
2021/12/13 10:11:52;;;;;;;10.97;7.50;;;10.50;99.90;;;;;;5031699;28;20818;-66
2021/12/13 10:14:22;;;;;;;10.33;6.00;;;10.60;99.90;;;;;;5018706;28;20943;-68
2021/12/13 10:16:51;;;;;;;10.47;7.47;;;10.70;99.90;;;;;;5020618;28;20458;-68
2021/12/13 10:19:25;;;;;;;8.10;6.37;;;10.70;99.90;;;;;;5013857;28;20526;-66
2021/12/13 10:21:51;;;;;;;9.07;6.97;;;10.80;99.90;;;;;;5013173;28;20441;-72
2021/12/13 10:24:24;;;;;;;12.80;7.40;;;10.80;99.90;;;;;;5031552;28;20438;-68
2021/12/13 10:26:52;;;;;;;10.57;6.83;;;10.80;99.10;;;;;;5033323;28;20449;-67
2021/12/13 10:29:19;;;;;;;11.03;7.00;;;10.80;94.80;;;;;;5031650;28;20513;-69
2021/12/13 10:31:56;;;;;;;14.70;7.47;;;10.70;93.50;;;;;;5031276;28;20472;-67
2021/12/13 10:34:28;;;;;;;15.00;7.03;;;10.70;93.00;;;;;;5032100;28;20392;-68
2021/12/13 10:37:02;;;;;;;14.10;8.00;;;10.70;93.10;;;;;;5024806;28;20527;-71
2021/12/13 10:39:34;;;;;;;10.70;6.80;;;10.70;91.30;;;;;;5032589;28;20981;-68
2021/12/13 10:42:09;;;;;;;14.37;7.00;;;10.70;90.70;;;;;;5032358;28;20423;-71
2021/12/13 10:44:38;;;;;;;12.97;7.80;;;10.70;85.30;;;;;;5022496;28;20494;-71
2021/12/13 10:47:10;;;;;;;10.60;7.03;;;10.70;84.20;;;;;;5029986;28;20469;-67
2021/12/13 10:49:42;;;;;;;16.10;8.70;;;10.60;79.70;;;;;;5031728;28;20438;-72
2021/12/13 10:52:18;;;;;;;15.53;7.97;;;10.60;79.70;;;;;;5028085;28;20427;-72
2021/12/13 10:54:48;;;;;;;13.07;8.20;;;10.60;76.60;;;;;;5031504;28;20433;-66
2021/12/13 10:57:19;;;;;;;12.97;7.40;;;10.50;70.00;;;;;;5016282;28;20451;-71
2021/12/13 10:59:49;;;;;;;13.03;7.57;;;10.50;70.00;;;;;;5019231;28;20426;-68
2021/12/13 11:02:23;;;;;;;11.33;7.10;;;10.50;67.80;;;;;;5012688;28;20426;-71
2021/12/13 11:04:56;;;;;;;12.83;7.30;;;10.50;66.90;;;;;;5028336;28;20407;-67
2021/12/13 11:07:22;;;;;;;12.60;8.00;;;10.50;64.80;;;;;;5021212;28;20566;-72
2021/12/13 11:09:51;;;;;;;12.57;7.33;;;10.50;64.50;;;;;;5029795;28;20855;-71
2021/12/13 11:12:23;;;;;;;11.97;8.43;;;10.50;63.40;;;;;;5014820;28;20479;-69
2021/12/13 11:14:52;;;;;;;12.70;7.73;;;10.50;60.90;;;;;;5016321;28;20477;-72
2021/12/13 11:17:23;;;;;;;10.10;7.10;;;10.50;60.10;;;;;;5019611;28;20505;-73
2021/12/13 11:19:53;;;;;;;9.53;7.20;;;10.50;60.10;;;;;;5014514;28;20536;-67
2021/12/13 11:22:23;;;;;;;14.00;7.60;;;10.50;57.90;;;;;;5020946;28;20385;-69
2021/12/13 11:24:55;;;;;;;9.50;6.80;;;10.50;57.70;;;;;;5018957;28;20420;-71
2021/12/13 11:27:30;;;;;;;10.97;7.60;;;10.60;58.30;;;;;;5026197;28;20449;-67
2021/12/13 11:29:55;;;;;;;19.43;8.07;;;10.60;55.90;;;;;;5032698;28;20402;-71
2021/12/13 11:32:39;;;;;;;12.17;7.13;;;10.60;54.00;;;;;;5025857;28;20429;-67
2021/12/13 11:35:30;;;;;;;14.13;7.93;;;10.50;46.50;;;;;;5012351;28;20183;-67
2021/12/13 11:38:29;;;;;;;11.43;7.57;;;10.50;46.50;;;;;;5029926;28;20453;-70
2021/12/13 11:41:22;;;;;;;9.80;7.47;;;10.60;46.50;;;;;;5026294;28;20422;-69
2021/12/13 11:44:15;;;;;;;10.00;6.03;;;10.60;41.60;;;;;;5012395;28;20946;-68
2021/12/13 11:47:08;;;;;;;8.53;7.10;;;10.60;38.20;;;;;;5032136;28;20414;-72
2021/12/13 11:50:08;;;;;;;10.30;6.90;;;10.60;32.20;;;;;;5020833;28;20427;-70
2021/12/13 11:53:10;;;;;;;9.90;5.40;;;10.60;29.40;;;;;;5017819;28;21033;-69
2021/12/13 11:56:08;;;;;;;11.30;7.30;;;10.60;26.80;;;;;;5031722;28;20420;-69
2021/12/13 11:58:58;;;;;;;10.03;5.63;;;10.70;25.80;;;;;;5031302;28;20426;-73
2021/12/13 12:01:47;;;;;;;7.87;5.67;;;10.70;23.30;;;;;;5030314;28;20451;-70
2021/12/13 12:04:50;;;;;;;8.20;6.53;;;10.60;18.70;;;;;;5035401;28;20405;-70
2021/12/13 12:07:40;;;;;;;10.20;6.90;;;10.60;17.20;;;;;;5035320;28;20799;-69
2021/12/13 12:10:44;;;;;;;9.20;7.03;;;10.60;15.00;;;;;;5035571;28;20406;-70
2021/12/13 12:13:36;;;;;;;12.87;7.20;;;10.70;14.40;;;;;;5034466;28;20729;-71
2021/12/13 12:16:04;;;;;;;9.57;5.90;;;10.60;13.30;;;;;;5034913;28;20926;-69
2021/12/13 12:18:35;;;;;;;10.77;7.50;;;10.60;10.50;;;;;;5035977;28;20467;-70
2021/12/13 12:21:32;;;;;;;12.67;5.50;;;10.60;9.80;;;;;;5035622;28;20401;-68
2021/12/13 12:24:04;;;;;;;8.03;5.90;;;10.60;8.10;;;;;;5033027;28;20406;-72
2021/12/13 12:26:30;;;;;;;7.80;5.37;;;10.60;6.10;;;;;;5017882;28;20439;-69
2021/12/13 12:28:58;;;;;;;7.70;6.17;;;10.60;4.50;;;;;;5015801;28;20457;-73
2021/12/13 12:31:36;;;;;;;8.13;4.97;;;10.50;4.10;;;;;;5034944;28;20954;-71
2021/12/13 12:34:04;;;;;;;8.73;6.23;;;10.60;2.10;;;;;;5033771;28;20488;-68
2021/12/13 12:36:57;;;;;;;5.80;5.00;;;10.60;2.00;;;;;;5015776;28;20450;-72
2021/12/13 12:39:56;;;;;;;5.33;4.67;;;10.60;2.00;;;;;;5017937;28;20407;-69
2021/12/13 12:42:43;;;;;;;8.33;5.33;;;10.50;1.00;;;;;;5019179;28;20434;-69
2021/12/13 12:45:20;;;;;;;7.87;6.00;;;10.60;1.00;;;;;;5035033;28;20415;-70
2021/12/13 12:47:57;;;;;;;6.47;4.63;;;10.60;1.00;;;;;;5028809;28;20415;-71
2021/12/13 12:50:35;;;;;;;9.50;5.70;;;10.50;1.00;;;;;;5031822;28;20532;-72
2021/12/13 12:53:15;;;;;;;11.07;6.10;;;10.50;1.00;;;;;;5034153;28;20809;-72
2021/12/13 12:55:57;;;;;;;8.00;5.60;;;10.50;1.00;;;;;;5031972;28;20448;-70
2021/12/13 12:58:27;;;;;;;7.53;4.77;;;10.40;1.00;;;;;;5032746;28;20406;-70
2021/12/13 13:00:58;;;;;;;9.50;7.13;;;10.50;1.00;;;;;;5024131;28;20412;-71
2021/12/13 13:03:30;;;;;;;9.40;5.43;;;10.50;1.00;;;;;;5033756;28;20414;-67
2021/12/13 13:06:15;;;;;;;10.30;5.90;;;10.50;1.00;;;;;;5034272;28;20405;-69
2021/12/13 13:08:45;;;;;;;7.40;5.70;;;10.50;1.00;;;;;;5026396;28;20393;-69
2021/12/13 13:11:29;;;;;;;14.97;6.27;;;10.50;1.00;;;;;;5021220;28;20386;-71
2021/12/13 13:14:18;;;;;;;12.30;6.37;;;10.50;1.00;;;;;;5022100;28;20567;-71
2021/12/13 13:16:48;;;;;;;11.80;6.17;;;10.50;1.00;;;;;;5033411;28;20807;-69
2021/12/13 13:19:30;;;;;;;7.07;4.63;;;10.50;1.00;;;;;;5029248;28;20398;-73
2021/12/13 13:22:06;;;;;;;8.60;5.40;;;10.50;1.00;;;;;;5015535;28;20510;-70
2021/12/13 13:24:36;;;;;;;12.33;5.63;;;10.50;1.00;;;;;;5026164;28;20419;-72
2021/12/13 13:27:02;;;;;;;10.53;6.07;;;10.40;1.00;;;;;;5029915;28;20944;-70
2021/12/13 13:29:28;;;;;;;12.83;6.27;;;10.40;1.00;;;;;;5025605;28;20441;-69
2021/12/13 13:32:00;;;;;;;7.27;5.83;;;10.40;1.00;;;;;;5033286;28;20222;-71
2021/12/13 13:34:33;;;;;;;8.60;5.83;;;10.40;1.00;;;;;;5027975;28;20263;-72
2021/12/13 13:37:04;;;;;;;10.30;5.60;;;10.40;1.00;;;;;;5017389;28;20429;-70
2021/12/13 13:39:42;;;;;;;8.53;6.13;;;10.40;1.00;;;;;;5024082;28;20483;-73
2021/12/13 13:42:14;;;;;;;8.27;5.60;;;10.40;1.00;;;;;;5032845;28;20459;-74
2021/12/13 13:45:02;;;;;;;5.83;5.03;;;10.50;1.00;;;;;;5032390;28;20419;-72